Airfield :
LOGIN :

Register | Disclaimer

   EN    FR    IT 

 










Legend :    VFR   Marginal VFR   IFR   Intensive IFR   Very Intensive IFR
Visi :
Ceiling :
>= 8 km
>= 3000ft
5 to 8 km
1000 to 3000 ft
1500m to 5 km
500 to 1000 ft
800 to 1500m
200 to 500 ft
< 800m
< 200 ft
Symbols :   Thunderstorms  Fog  Heavy snow  Heavy precipitations  Wind > 20 kt
SIGMETs :     Misc.  Thunderstorms  Icing  Turbulence  Mountain Waves  Volcanic Ashes







- Airport Elevation : 978 ft
- IATA code : LNZ


LOWL - Linz

CURRENT METAR :
  • 201520Z AUTO 30008KT 260V330 9999 FEW048 SCT100 20/09 Q1022 NOSIG

EXPIRED METARs :
  • 201450Z 25010KT 9999 FEW038 SCT090 20/11 Q1022 NOSIG
  • 201420Z 25012KT 9999 FEW035 BKN090 19/11 Q1022 NOSIG
  • 201350Z 23010KT 9999 FEW035 BKN090 19/12 Q1022 NOSIG
  • 201320Z 23011KT 9999 FEW032 SCT040 BKN090 18/11 Q1022 NOSIG
  • 201250Z 24008KT 9999 FEW030 SCT080 BKN100 18/12 Q1023 NOSIG
  • 201220Z 25013KT 9999 FEW030 BKN080 17/11 Q1023 NOSIG

TAF TAF LOWL
Valid from the 20 at 12:00 until the 21 at 12:00 UTC


201115Z 2012/2112 28010KT 9999 FEW040 TX21/2015Z TN12/2104Z
TEMPO 2012/2015 28015G25KT
BECMG 2017/2019 26004KT
BECMG 2108/2110 28010KT
No reported NOTAMs for that airfield.



MET'MAP, your aeronautical weather chart ! - Copyright ORBIFLY December 2007 - Disclaimer

ORBIFLY MET'MAP TEAM :

Programming & Development : Alexandra Zaïnal
Concept & Development : Baudouin d'Aumeries
Co-Development & Prog : Marc-Olivier Méhu
Technical & hardware support : Manuel Goepfert

Contact : metmap@orbifly.com




SOURCES & CREDITS :

   NOAA